createdAt,value
2024-02-10T00:00:41.783Z,13.30
2024-02-10T00:03:31.428Z,13.30
2024-02-10T00:06:20.598Z,13.30
2024-02-10T00:09:09.829Z,13.30
2024-02-10T00:11:59.676Z,13.30
2024-02-10T00:14:49.127Z,13.30
2024-02-10T00:17:39.863Z,13.20
2024-02-10T00:20:29.782Z,13.20
2024-02-10T00:23:19.697Z,13.20
2024-02-10T00:26:08.802Z,13.20
2024-02-10T00:28:58.235Z,13.20
2024-02-10T00:31:47.574Z,13.20
2024-02-10T00:34:41.383Z,13.20
2024-02-10T00:37:30.677Z,13.20
2024-02-10T00:40:19.760Z,13.20
2024-02-10T00:43:12.656Z,13.20
2024-02-10T00:46:01.679Z,13.20
2024-02-10T00:48:54.503Z,13.20
2024-02-10T00:51:45.029Z,13.20
2024-02-10T00:54:34.036Z,13.20
2024-02-10T00:57:23.072Z,13.20
2024-02-10T01:00:17.769Z,13.20
2024-02-10T01:03:10.548Z,13.20
2024-02-10T01:06:00.102Z,13.20
2024-02-10T01:08:52.567Z,13.20
2024-02-10T01:11:44.488Z,13.20
2024-02-10T01:14:33.856Z,13.20
2024-02-10T01:17:25.345Z,13.20
2024-02-10T01:20:17.879Z,13.10
2024-02-10T01:23:07.150Z,13.20
2024-02-10T01:25:57.657Z,13.20
2024-02-10T01:28:47.178Z,13.10
2024-02-10T01:31:36.545Z,13.10
2024-02-10T01:34:27.051Z,13.10
2024-02-10T01:37:18.762Z,13.10
2024-02-10T01:40:12.148Z,13.10
2024-02-10T01:43:05.772Z,13.10
2024-02-10T01:45:54.840Z,13.10
2024-02-10T01:48:45.078Z,13.10
2024-02-10T01:51:34.448Z,13.10
2024-02-10T01:54:23.638Z,13.10
2024-02-10T01:57:14.293Z,13.00
2024-02-10T02:00:07.440Z,13.00
2024-02-10T02:03:00.624Z,13.00
2024-02-10T02:05:50.869Z,12.90
2024-02-10T02:08:40.525Z,12.90
2024-02-10T02:11:30.383Z,12.90
2024-02-10T02:14:19.496Z,12.90
2024-02-10T02:17:10.805Z,12.80
2024-02-10T02:20:00.013Z,12.80
2024-02-10T02:22:51.693Z,12.70
2024-02-10T02:25:41.812Z,12.70
2024-02-10T02:28:31.885Z,12.70
2024-02-10T02:31:21.103Z,12.60
2024-02-10T02:34:10.125Z,12.60
2024-02-10T02:36:59.730Z,12.60
2024-02-10T02:39:50.396Z,12.50
2024-02-10T02:42:39.485Z,12.50
2024-02-10T02:45:29.086Z,12.40
2024-02-10T02:48:19.175Z,12.40
2024-02-10T02:51:08.829Z,12.40
2024-02-10T02:53:58.956Z,12.30
2024-02-10T02:56:53.161Z,12.30
2024-02-10T02:59:42.298Z,12.30
2024-02-10T03:02:33.929Z,12.30
2024-02-10T03:05:23.028Z,12.20
2024-02-10T03:08:12.080Z,12.20
2024-02-10T03:11:01.416Z,12.20
2024-02-10T03:13:52.074Z,12.20
2024-02-10T03:16:42.396Z,12.10
2024-02-10T03:19:31.942Z,12.10
2024-02-10T03:22:21.319Z,12.10
2024-02-10T03:25:13.834Z,12.10
2024-02-10T03:28:05.213Z,12.10
2024-02-10T03:30:55.894Z,12.10
2024-02-10T03:33:45.317Z,12.10
2024-02-10T03:36:34.294Z,12.10
2024-02-10T03:39:23.426Z,12.00
2024-02-10T03:42:12.514Z,12.00
2024-02-10T03:45:01.549Z,12.00
2024-02-10T03:47:52.431Z,12.00
2024-02-10T03:50:41.799Z,12.00
2024-02-10T03:53:31.870Z,12.00
2024-02-10T03:56:22.351Z,12.00
2024-02-10T03:59:11.430Z,12.00
2024-02-10T04:02:00.674Z,12.00
2024-02-10T04:04:51.938Z,11.90
2024-02-10T04:07:41.292Z,12.00
2024-02-10T04:10:30.506Z,12.00
2024-02-10T04:13:19.815Z,12.00
2024-02-10T04:16:12.303Z,12.00
2024-02-10T04:19:03.291Z,12.00
2024-02-10T04:21:53.690Z,12.00
2024-02-10T04:24:42.921Z,12.00
2024-02-10T04:27:32.009Z,12.00
2024-02-10T04:30:21.486Z,12.00
2024-02-10T04:33:10.622Z,12.00
2024-02-10T04:35:59.784Z,12.00
2024-02-10T04:38:50.632Z,12.00
2024-02-10T04:41:39.742Z,12.00
2024-02-10T04:44:28.877Z,12.00
2024-02-10T04:47:18.068Z,12.00
2024-02-10T04:50:07.651Z,12.10
2024-02-10T04:52:57.167Z,12.10
2024-02-10T04:55:47.992Z,12.00
2024-02-10T04:58:37.048Z,12.00
2024-02-10T05:01:32.971Z,12.00
2024-02-10T05:04:22.070Z,12.00
2024-02-10T05:07:11.785Z,12.00
2024-02-10T05:10:03.168Z,12.10
2024-02-10T05:12:56.949Z,12.10
2024-02-10T05:15:46.380Z,12.00
2024-02-10T05:18:35.510Z,12.10
2024-02-10T05:21:25.650Z,12.10
2024-02-10T05:24:16.220Z,12.00
2024-02-10T05:27:08.047Z,12.00
2024-02-10T05:29:58.401Z,12.00
2024-02-10T05:32:47.742Z,12.00
2024-02-10T05:35:36.763Z,12.00
2024-02-10T05:38:25.809Z,12.00
2024-02-10T05:41:14.845Z,12.00
2024-02-10T05:44:04.022Z,12.00
2024-02-10T05:46:54.586Z,12.00
2024-02-10T05:49:44.020Z,11.90
2024-02-10T05:52:36.003Z,11.90
2024-02-10T05:55:28.780Z,11.90
2024-02-10T05:58:18.002Z,11.90
2024-02-10T06:01:07.316Z,11.80
2024-02-10T06:03:59.234Z,11.80
2024-02-10T06:06:48.485Z,11.80
2024-02-10T06:09:37.754Z,11.80
2024-02-10T06:12:28.525Z,11.80
2024-02-10T06:15:19.100Z,11.80
2024-02-10T06:18:09.348Z,11.80
2024-02-10T06:21:00.419Z,11.80
2024-02-10T06:23:51.697Z,11.80
2024-02-10T06:26:40.878Z,11.70
2024-02-10T06:29:30.581Z,11.70
2024-02-10T06:32:22.364Z,11.60
2024-02-10T06:35:11.742Z,11.60
2024-02-10T06:38:02.250Z,11.60
2024-02-10T06:40:51.630Z,11.60
2024-02-10T06:43:41.007Z,11.60
2024-02-10T06:46:30.028Z,11.50
2024-02-10T06:49:22.105Z,11.50
2024-02-10T06:52:11.434Z,11.50
2024-02-10T06:55:02.150Z,11.50
2024-02-10T06:57:54.384Z,11.50
2024-02-10T07:00:44.589Z,11.50
2024-02-10T07:03:33.554Z,11.50
2024-02-10T07:06:28.605Z,11.50
2024-02-10T07:09:17.563Z,11.50
2024-02-10T07:12:09.045Z,11.50
2024-02-10T07:14:58.490Z,11.50
2024-02-10T07:17:48.557Z,11.60
2024-02-10T07:20:38.373Z,11.60
2024-02-10T07:23:28.043Z,11.60
2024-02-10T07:26:21.697Z,11.50
2024-02-10T07:29:13.102Z,11.60
2024-02-10T07:32:02.147Z,11.60
2024-02-10T07:34:51.161Z,11.60
2024-02-10T07:37:40.386Z,11.50
2024-02-10T07:40:29.750Z,11.50
2024-02-10T07:43:19.038Z,11.50
2024-02-10T07:46:09.737Z,11.50
2024-02-10T07:49:02.545Z,11.50
2024-02-10T07:51:51.991Z,11.50
2024-02-10T07:54:43.029Z,11.50
2024-02-10T07:57:35.865Z,11.50
2024-02-10T08:00:24.956Z,11.50
2024-02-10T08:03:15.539Z,11.50
2024-02-10T08:06:05.503Z,11.60
2024-02-10T08:08:58.671Z,11.60
2024-02-10T08:11:47.799Z,11.60
2024-02-10T08:14:37.965Z,11.70
2024-02-10T08:17:31.658Z,11.70
2024-02-10T08:20:24.305Z,11.70
2024-02-10T08:23:15.711Z,11.80
2024-02-10T08:26:04.815Z,11.80
2024-02-10T08:28:56.455Z,11.80
2024-02-10T08:31:45.452Z,11.90
2024-02-10T08:34:39.562Z,11.90
2024-02-10T08:37:30.960Z,12.00
2024-02-10T08:40:20.442Z,12.00
2024-02-10T08:43:10.218Z,12.00
2024-02-10T08:46:02.161Z,12.10
2024-02-10T08:48:53.074Z,12.20
2024-02-10T08:51:43.127Z,12.20
2024-02-10T08:54:33.934Z,12.30
2024-02-10T08:57:25.070Z,12.40
2024-02-10T09:00:20.493Z,12.50
2024-02-10T09:03:11.046Z,12.60
2024-02-10T09:06:00.541Z,12.60
2024-02-10T09:08:51.962Z,12.70
2024-02-10T09:11:42.738Z,12.80
2024-02-10T09:14:34.119Z,12.90
2024-02-10T09:17:24.914Z,13.00
2024-02-10T09:20:15.562Z,13.10
2024-02-10T09:23:05.389Z,13.30
2024-02-10T09:25:54.827Z,13.50
2024-02-10T09:28:47.981Z,13.80
2024-02-10T09:31:37.275Z,14.10
2024-02-10T09:34:28.287Z,14.40
2024-02-10T09:37:17.903Z,14.60
2024-02-10T09:40:10.259Z,14.80
2024-02-10T09:43:03.343Z,15.00
2024-02-10T09:45:53.901Z,15.10
2024-02-10T09:48:45.905Z,15.20
2024-02-10T09:51:36.074Z,15.20
2024-02-10T09:54:25.020Z,15.20
2024-02-10T09:57:15.728Z,15.20
2024-02-10T10:00:05.772Z,15.30
2024-02-10T10:03:04.491Z,15.40
2024-02-10T10:05:53.919Z,15.40
2024-02-10T10:08:44.324Z,15.50
2024-02-10T10:11:34.787Z,15.60
2024-02-10T10:14:25.285Z,15.70
2024-02-10T10:17:15.775Z,15.80
2024-02-10T10:20:10.574Z,15.90
2024-02-10T10:23:00.101Z,16.00
2024-02-10T10:25:49.627Z,16.10
2024-02-10T10:28:39.140Z,16.20
2024-02-10T10:31:30.776Z,16.30
2024-02-10T10:34:22.028Z,16.50
2024-02-10T10:37:14.182Z,16.60
2024-02-10T10:40:04.100Z,16.70
2024-02-10T10:42:56.577Z,16.80
2024-02-10T10:45:47.089Z,17.00
2024-02-10T10:48:36.556Z,17.10
2024-02-10T10:51:32.446Z,17.20
2024-02-10T10:54:25.382Z,17.30
2024-02-10T10:57:20.161Z,17.40
2024-02-10T11:00:13.744Z,17.40
2024-02-10T11:03:04.134Z,17.30
2024-02-10T11:05:53.287Z,17.20
2024-02-10T11:08:42.514Z,17.20
2024-02-10T11:11:39.853Z,17.10
2024-02-10T11:14:28.967Z,17.20
2024-02-10T11:17:18.012Z,17.20
2024-02-10T11:20:09.777Z,17.20
2024-02-10T11:22:59.672Z,17.40
2024-02-10T11:25:53.582Z,17.60
2024-02-10T11:28:44.035Z,17.70
2024-02-10T11:31:35.142Z,17.90
2024-02-10T11:34:24.817Z,18.00
2024-02-10T11:37:14.312Z,18.00
2024-02-10T11:40:03.516Z,18.00
2024-02-10T11:42:52.564Z,17.90
2024-02-10T11:45:43.342Z,17.80
2024-02-10T11:48:32.844Z,17.60
2024-02-10T11:51:24.468Z,17.50
2024-02-10T11:54:13.911Z,17.30
2024-02-10T11:57:04.318Z,17.10
2024-02-10T11:59:56.584Z,17.00
2024-02-10T12:02:53.128Z,16.80
2024-02-10T12:05:42.644Z,16.60
2024-02-10T12:08:32.073Z,16.50
2024-02-10T12:11:22.764Z,16.30
2024-02-10T12:14:15.345Z,16.20
2024-02-10T12:17:07.059Z,16.10
2024-02-10T12:19:58.094Z,16.00
2024-02-10T12:22:48.580Z,15.90
2024-02-10T12:25:38.716Z,15.80
2024-02-10T12:28:27.861Z,15.70
2024-02-10T12:31:22.480Z,15.70
2024-02-10T12:34:11.836Z,15.60
2024-02-10T12:37:02.340Z,15.50
2024-02-10T12:39:51.354Z,15.50
2024-02-10T12:42:43.450Z,15.40
2024-02-10T12:45:36.464Z,15.40
2024-02-10T12:48:25.588Z,15.40
2024-02-10T12:51:16.715Z,15.30
2024-02-10T12:54:07.223Z,15.30
2024-02-10T12:56:57.181Z,15.20
2024-02-10T12:59:46.299Z,15.10
2024-02-10T13:02:37.272Z,15.10
2024-02-10T13:05:28.798Z,15.10
2024-02-10T13:08:19.304Z,15.10
2024-02-10T13:11:10.814Z,15.10
2024-02-10T13:14:00.166Z,15.10
2024-02-10T13:16:49.502Z,15.10
2024-02-10T13:19:39.266Z,15.10
2024-02-10T13:22:28.391Z,15.10
2024-02-10T13:25:20.187Z,15.10
2024-02-10T13:28:12.696Z,15.10
2024-02-10T13:31:02.225Z,15.20
2024-02-10T13:33:51.565Z,15.20
2024-02-10T13:36:39.616Z,15.20
2024-02-10T13:39:46.222Z,15.20
2024-02-10T13:42:52.603Z,15.20
2024-02-10T13:46:01.367Z,15.30
2024-02-10T13:49:08.524Z,15.30
2024-02-10T13:52:14.972Z,15.30
2024-02-10T13:55:21.914Z,15.30
2024-02-10T13:58:09.963Z,15.30
2024-02-10T14:01:00.535Z,15.30
2024-02-10T14:04:07.538Z,15.30
2024-02-10T14:06:57.292Z,15.30
2024-02-10T14:09:46.184Z,15.40
2024-02-10T14:12:35.282Z,15.40
2024-02-10T14:15:28.849Z,15.40
2024-02-10T14:18:25.994Z,15.40
2024-02-10T14:21:19.119Z,15.50
2024-02-10T14:24:12.843Z,15.50
2024-02-10T14:27:15.187Z,15.50
2024-02-10T14:30:06.233Z,15.50
2024-02-10T14:32:55.897Z,15.50
2024-02-10T14:35:59.649Z,15.50
2024-02-10T14:39:00.376Z,15.50
2024-02-10T14:41:51.607Z,15.60
2024-02-10T14:44:42.395Z,15.60
2024-02-10T14:47:31.818Z,15.60
2024-02-10T14:50:22.419Z,15.60
2024-02-10T14:53:13.595Z,15.60
2024-02-10T14:56:12.050Z,15.60
2024-02-10T14:59:03.816Z,15.60
2024-02-10T15:01:54.937Z,15.70
2024-02-10T15:04:48.592Z,15.70
2024-02-10T15:07:37.802Z,15.70
2024-02-10T15:10:28.915Z,15.70
2024-02-10T15:13:23.644Z,15.70
2024-02-10T15:16:19.310Z,15.70
2024-02-10T15:19:08.616Z,15.70
2024-02-10T15:22:00.301Z,15.70
2024-02-10T15:24:49.731Z,15.70
2024-02-10T15:27:40.217Z,15.70
2024-02-10T15:30:29.368Z,15.70
2024-02-10T15:33:20.444Z,15.60
2024-02-10T15:36:26.178Z,15.60
2024-02-10T15:39:18.246Z,15.60
2024-02-10T15:42:07.568Z,15.60
2024-02-10T15:45:00.190Z,15.50
2024-02-10T15:47:50.090Z,15.50
2024-02-10T15:50:39.808Z,15.50
2024-02-10T15:53:29.400Z,15.40
2024-02-10T15:56:19.170Z,15.40
2024-02-10T15:59:08.782Z,15.40
2024-02-10T16:01:59.589Z,15.40
2024-02-10T16:04:50.616Z,15.30
2024-02-10T16:07:41.843Z,15.30
2024-02-10T16:10:31.622Z,15.20
2024-02-10T16:13:22.323Z,15.20
2024-02-10T16:16:14.114Z,15.10
2024-02-10T16:19:08.111Z,15.10
2024-02-10T16:21:57.522Z,15.00
2024-02-10T16:24:49.906Z,15.00
2024-02-10T16:27:40.901Z,15.00
2024-02-10T16:30:33.588Z,14.90
2024-02-10T16:33:23.975Z,14.90
2024-02-10T16:36:16.786Z,14.80
2024-02-10T16:39:08.402Z,14.80
2024-02-10T16:41:58.678Z,14.80
2024-02-10T16:44:48.356Z,14.70
2024-02-10T16:47:37.725Z,14.70
2024-02-10T16:50:28.809Z,14.60
2024-02-10T16:53:19.600Z,14.60
2024-02-10T16:56:09.272Z,14.60
2024-02-10T16:58:58.425Z,14.50
2024-02-10T17:01:47.568Z,14.50
2024-02-10T17:04:37.847Z,14.50
2024-02-10T17:07:30.939Z,14.40
2024-02-10T17:10:21.730Z,14.40
2024-02-10T17:13:11.856Z,14.40
2024-02-10T17:16:01.506Z,14.30
2024-02-10T17:18:51.119Z,14.30
2024-02-10T17:21:42.755Z,14.20
2024-02-10T17:24:32.340Z,14.20
2024-02-10T17:27:22.697Z,14.20
2024-02-10T17:30:12.851Z,14.10
2024-02-10T17:33:04.634Z,14.10
2024-02-10T17:35:54.679Z,14.10
2024-02-10T17:38:45.043Z,14.10
2024-02-10T17:41:36.448Z,14.00
2024-02-10T17:44:26.956Z,14.00
2024-02-10T17:47:20.302Z,14.00
2024-02-10T17:50:11.327Z,14.00
2024-02-10T17:53:02.099Z,13.90
2024-02-10T17:55:52.120Z,13.90
2024-02-10T17:58:41.169Z,13.90
2024-02-10T18:01:33.696Z,13.90
2024-02-10T18:04:22.938Z,13.90
2024-02-10T18:07:14.566Z,13.80
2024-02-10T18:10:05.896Z,13.80
2024-02-10T18:12:55.066Z,13.80
2024-02-10T18:15:44.348Z,13.80
2024-02-10T18:18:34.734Z,13.80
2024-02-10T18:21:23.868Z,13.80
2024-02-10T18:24:13.194Z,13.80
2024-02-10T18:27:05.383Z,13.70
2024-02-10T18:29:56.456Z,13.80
2024-02-10T18:32:48.248Z,13.70
2024-02-10T18:35:40.184Z,13.70
2024-02-10T18:38:29.492Z,13.70
2024-02-10T18:41:20.032Z,13.60
2024-02-10T18:44:11.947Z,13.60
2024-02-10T18:47:01.317Z,13.60
2024-02-10T18:49:54.565Z,13.50
2024-02-10T18:52:46.274Z,13.50
2024-02-10T18:55:35.820Z,13.50
2024-02-10T18:58:25.977Z,13.40
2024-02-10T19:01:15.044Z,13.40
2024-02-10T19:04:06.001Z,13.40
2024-02-10T19:06:55.627Z,13.30
2024-02-10T19:09:47.645Z,13.30
2024-02-10T19:12:37.836Z,13.30
2024-02-10T19:15:27.067Z,13.30
2024-02-10T19:18:20.861Z,13.20
2024-02-10T19:21:13.260Z,13.20
2024-02-10T19:24:03.395Z,13.20
2024-02-10T19:26:54.435Z,13.20
2024-02-10T19:29:43.871Z,13.20
2024-02-10T19:32:33.094Z,13.20
2024-02-10T19:35:23.553Z,13.10
2024-02-10T19:38:22.950Z,13.10
2024-02-10T19:41:18.283Z,13.10
2024-02-10T19:44:09.410Z,13.10
2024-02-10T19:46:58.625Z,13.10
2024-02-10T19:49:47.897Z,13.00
2024-02-10T19:52:37.093Z,13.00
2024-02-10T19:55:28.373Z,13.00
2024-02-10T19:58:18.863Z,13.00
2024-02-10T20:01:10.436Z,13.00
2024-02-10T20:03:59.499Z,13.00
2024-02-10T20:06:48.622Z,12.90
2024-02-10T20:09:37.691Z,12.90
2024-02-10T20:12:27.407Z,12.90
2024-02-10T20:15:18.580Z,12.90
2024-02-10T20:18:09.370Z,12.80
2024-02-10T20:20:58.446Z,12.80
2024-02-10T20:23:48.102Z,12.80
2024-02-10T20:26:40.341Z,12.80
2024-02-10T20:29:31.679Z,12.70
2024-02-10T20:32:23.517Z,12.70
2024-02-10T20:35:14.225Z,12.70
2024-02-10T20:38:03.321Z,12.70
2024-02-10T20:40:52.633Z,12.70
2024-02-10T20:43:42.565Z,12.70
2024-02-10T20:46:32.056Z,12.70
2024-02-10T20:49:22.486Z,12.70
2024-02-10T20:52:15.134Z,12.70
2024-02-10T20:55:04.886Z,12.70
2024-02-10T20:57:54.030Z,12.60
2024-02-10T21:00:43.280Z,12.60
2024-02-10T21:03:32.435Z,12.60
2024-02-10T21:06:27.905Z,12.60
2024-02-10T21:09:18.806Z,12.60
2024-02-10T21:12:09.142Z,12.60
2024-02-10T21:14:59.452Z,12.60
2024-02-10T21:17:48.672Z,12.60
2024-02-10T21:20:37.997Z,12.60
2024-02-10T21:23:30.630Z,12.50
2024-02-10T21:26:21.233Z,12.50
2024-02-10T21:29:11.512Z,12.50
2024-02-10T21:32:01.042Z,12.50
2024-02-10T21:34:50.213Z,12.50
2024-02-10T21:37:39.606Z,12.40
2024-02-10T21:40:28.637Z,12.40
2024-02-10T21:43:22.436Z,12.40
2024-02-10T21:46:11.422Z,12.40
2024-02-10T21:49:01.912Z,12.40
2024-02-10T21:51:55.133Z,12.40
2024-02-10T21:54:46.751Z,12.40
2024-02-10T21:57:37.337Z,12.40
2024-02-10T22:00:28.531Z,12.30
2024-02-10T22:03:19.013Z,12.30
2024-02-10T22:06:08.127Z,12.30
2024-02-10T22:08:59.206Z,12.30
2024-02-10T22:11:48.308Z,12.30
2024-02-10T22:14:38.025Z,12.30
2024-02-10T22:17:30.653Z,12.20
2024-02-10T22:20:21.293Z,12.20
2024-02-10T22:23:10.516Z,12.20
2024-02-10T22:25:59.922Z,12.20
2024-02-10T22:28:49.102Z,12.20
2024-02-10T22:31:40.147Z,12.20
2024-02-10T22:34:31.229Z,12.20
2024-02-10T22:37:24.610Z,12.20
2024-02-10T22:40:17.643Z,12.20
2024-02-10T22:43:08.761Z,12.20
2024-02-10T22:45:57.840Z,12.20
2024-02-10T22:48:47.210Z,12.20
2024-02-10T22:51:38.295Z,12.20
2024-02-10T22:54:28.971Z,12.20
2024-02-10T22:57:18.060Z,12.20
2024-02-10T23:00:14.297Z,12.20
2024-02-10T23:03:03.615Z,12.20
2024-02-10T23:05:52.989Z,12.20
2024-02-10T23:08:44.464Z,12.20
2024-02-10T23:11:33.776Z,12.20
2024-02-10T23:14:22.952Z,12.20
2024-02-10T23:17:14.138Z,12.10
2024-02-10T23:20:09.445Z,12.10
2024-02-10T23:23:01.875Z,12.10
2024-02-10T23:25:54.772Z,12.10
2024-02-10T23:28:44.354Z,12.10
2024-02-10T23:31:33.858Z,12.10
2024-02-10T23:34:25.026Z,12.10
2024-02-10T23:37:22.817Z,12.10
2024-02-10T23:40:14.935Z,12.10
2024-02-10T23:43:08.562Z,12.00
2024-02-10T23:46:00.309Z,12.00
2024-02-10T23:48:54.243Z,12.00
2024-02-10T23:51:44.479Z,12.00
2024-02-10T23:54:34.742Z,12.00
2024-02-10T23:57:24.736Z,12.00
